Time;durP1;ratioP1;P1;durP2;ratioP2;P2;SDS_P1;SDS_P2;PMS_P1;PMS_P2;Temp;Humidity;BMP_temperature;BMP_pressure;BME280_temperature;BME280_humidity;BME280_pressure;Samples;Min_cycle;Max_cycle;Signal;HPM_P1;HPM_P2
2023/12/18 00:00:33;;;;;;;0.10;0.10;;;;;;;4.94;79.57;102493.84;15692041;28;20037;-48
2023/12/18 00:08:11;;;;;;;0.45;0.45;;;;;;;5.40;77.66;102489.06;15673520;28;20076;-48
2023/12/18 00:15:44;;;;;;;0.00;0.00;;;;;;;5.20;78.99;102477.50;15672535;28;20041;-50
2023/12/18 00:23:19;;;;;;;0.00;0.00;;;;;;;4.93;79.55;102470.88;15673084;28;20048;-47
2023/12/18 00:30:53;;;;;;;0.15;0.15;;;;;;;4.85;80.27;102468.91;15674529;28;20567;-48
2023/12/18 00:38:28;;;;;;;1.23;1.13;;;;;;;4.70;80.65;102462.19;15667007;28;20045;-46
2023/12/18 00:46:05;;;;;;;0.00;0.00;;;;;;;4.89;80.42;102456.16;15659531;28;20132;-47
2023/12/18 00:53:45;;;;;;;0.00;0.00;;;;;;;4.58;80.76;102440.16;15672635;28;20048;-47
2023/12/18 01:01:19;;;;;;;0.00;0.00;;;;;;;4.52;81.69;102435.34;15672516;28;20033;-47
2023/12/18 01:08:53;;;;;;;;;;;;;;;4.60;82.29;102440.00;15661970;28;20203;-46
2023/12/18 01:16:27;;;;;;;0.00;0.00;;;;;;;4.55;82.87;102434.22;15677511;28;19921;-47
2023/12/18 01:24:02;;;;;;;0.20;0.15;;;;;;;4.56;82.16;102438.56;15679746;28;20041;-49
2023/12/18 01:31:35;;;;;;;0.00;0.00;;;;;;;4.57;82.24;102440.28;15634684;28;20124;-47
2023/12/18 01:39:10;;;;;;;0.00;0.00;;;;;;;4.70;81.88;102424.94;15649963;28;20072;-48
2023/12/18 01:46:46;;;;;;;2.75;0.73;;;;;;;4.50;83.33;102420.50;15675748;28;20041;-48
2023/12/18 01:54:24;;;;;;;0.00;0.00;;;;;;;4.63;82.68;102425.63;15682237;28;20045;-47
2023/12/18 02:01:58;;;;;;;0.45;0.45;;;;;;;4.74;82.05;102426.38;15682242;28;20358;-46
2023/12/18 02:09:33;;;;;;;0.00;0.00;;;;;;;4.30;83.44;102417.69;15681106;28;20045;-49
2023/12/18 02:17:06;;;;;;;0.10;0.10;;;;;;;4.00;84.84;102428.19;15680194;28;20418;-46
2023/12/18 02:24:41;;;;;;;;;;;;;;;4.23;83.74;102420.97;15681186;28;20110;-49
2023/12/18 02:32:16;;;;;;;0.00;0.00;;;;;;;4.29;84.04;102417.78;15679750;28;19967;-49
2023/12/18 02:39:51;;;;;;;0.13;0.13;;;;;;;4.53;83.22;102410.44;15674297;28;20051;-47
2023/12/18 02:47:24;;;;;;;0.00;0.00;;;;;;;4.74;82.98;102409.59;15672969;28;20529;-47
2023/12/18 02:55:00;;;;;;;;;;;;;;;4.70;82.76;102408.16;15680922;28;20285;-47
2023/12/18 03:02:33;;;;;;;0.38;0.10;;;;;;;4.69;83.39;102401.16;15675776;28;19925;-46
2023/12/18 03:10:11;;;;;;;0.00;0.00;;;;;;;4.88;85.29;102398.59;15678680;28;20048;-47
2023/12/18 03:17:49;;;;;;;0.93;0.90;;;;;;;5.27;82.85;102398.75;15666868;28;20037;-48
2023/12/18 03:25:24;;;;;;;;;;;;;;;4.75;85.40;102408.59;15671410;28;20701;-46
2023/12/18 03:33:02;;;;;;;0.00;0.00;;;;;;;5.26;84.31;102402.41;15649690;28;19920;-49
2023/12/18 03:40:37;;;;;;;0.03;0.03;;;;;;;5.38;84.39;102420.81;15657494;28;20064;-49
2023/12/18 03:48:13;;;;;;;0.00;0.00;;;;;;;5.94;83.56;102414.09;15667990;28;20103;-47
2023/12/18 03:55:48;;;;;;;;;;;;;;;6.24;82.90;102415.78;15691181;28;20037;-49
2023/12/18 04:03:22;;;;;;;1.80;0.75;;;;;;;6.18;82.40;102415.53;15666640;28;19921;-48
2023/12/18 04:10:57;;;;;;;;;;;;;;;6.33;81.28;102400.78;15675317;28;20079;-48
2023/12/18 04:18:35;;;;;;;0.10;0.10;;;;;;;6.36;80.72;102416.50;15656780;28;20391;-50
2023/12/18 04:26:11;;;;;;;0.85;0.85;;;;;;;6.31;80.11;102414.25;15673197;28;20125;-47
2023/12/18 04:33:44;;;;;;;0.32;0.32;;;;;;;6.39;79.74;102390.41;15669618;28;20506;-46
2023/12/18 04:41:23;;;;;;;0.20;0.20;;;;;;;6.37;79.69;102384.34;15688940;28;20064;-46
2023/12/18 04:48:58;;;;;;;0.15;0.15;;;;;;;6.45;79.21;102385.47;15649434;28;20123;-45
2023/12/18 04:56:34;;;;;;;0.00;0.00;;;;;;;6.41;79.76;102379.56;15686893;28;20044;-46
2023/12/18 05:04:08;;;;;;;0.10;0.10;;;;;;;6.47;79.32;102384.34;15670518;28;20291;-47
2023/12/18 05:11:44;;;;;;;1.25;0.75;;;;;;;6.44;79.08;102381.13;15666965;28;20045;-48
2023/12/18 05:19:18;;;;;;;0.00;0.00;;;;;;;6.55;78.20;102375.63;15672272;28;20047;-48
2023/12/18 05:26:53;;;;;;;3.85;1.42;;;;;;;6.30;79.44;102385.91;15664924;28;20041;-47
2023/12/18 05:34:27;;;;;;;0.00;0.00;;;;;;;6.50;78.65;102389.41;15671637;28;20517;-48
2023/12/18 05:42:03;;;;;;;0.63;0.55;;;;;;;6.59;77.84;102409.03;15672042;28;20076;-50
2023/12/18 05:49:38;;;;;;;0.93;0.93;;;;;;;6.32;78.54;102415.94;15680104;28;20040;-49
2023/12/18 05:57:16;;;;;;;0.20;0.20;;;;;;;6.33;77.57;102419.44;15672311;28;20045;-49
2023/12/18 06:04:50;;;;;;;0.50;0.50;;;;;;;6.31;75.79;102432.09;15670466;28;20367;-48
2023/12/18 06:12:25;;;;;;;0.47;0.47;;;;;;;6.69;74.83;102435.69;15681401;28;20063;-49
2023/12/18 06:19:59;;;;;;;0.40;0.40;;;;;;;6.69;74.12;102433.03;15679625;28;20048;-46
2023/12/18 06:27:34;;;;;;;2.17;0.68;;;;;;;6.51;74.76;102446.25;15678165;28;20048;-51
2023/12/18 06:35:09;;;;;;;2.65;0.75;;;;;;;6.58;74.69;102444.72;15675430;28;20049;-46
2023/12/18 06:42:44;;;;;;;0.30;0.20;;;;;;;6.37;75.17;102443.03;15680187;28;20045;-48
2023/12/18 06:50:17;;;;;;;0.25;0.25;;;;;;;6.37;74.73;102447.53;15676617;28;20136;-46
2023/12/18 06:57:52;;;;;;;0.17;0.17;;;;;;;6.47;74.40;102437.69;15693291;28;20047;-51
2023/12/18 07:05:29;;;;;;;0.43;0.43;;;;;;;6.48;74.36;102447.41;15651605;28;20452;-49
2023/12/18 07:13:04;;;;;;;0.85;0.85;;;;;;;6.32;74.42;102465.78;15685173;28;20115;-47
2023/12/18 07:20:39;;;;;;;1.45;1.35;;;;;;;6.49;73.92;102467.75;15676670;28;20044;-49
2023/12/18 07:28:14;;;;;;;0.10;0.10;;;;;;;6.47;74.65;102464.34;15677972;28;20299;-47
2023/12/18 07:35:47;;;;;;;1.10;0.98;;;;;;;6.70;73.82;102472.06;15676534;28;20041;-51
2023/12/18 07:43:25;;;;;;;1.67;0.50;;;;;;;6.32;74.74;102461.28;15673577;28;20045;-48
2023/12/18 07:51:00;;;;;;;2.47;0.68;;;;;;;6.49;74.66;102474.91;15669382;28;20049;-50
2023/12/18 07:58:35;;;;;;;0.13;0.13;;;;;;;6.57;74.74;102477.69;15677105;28;20049;-50
2023/12/18 08:06:14;;;;;;;0.10;0.10;;;;;;;6.48;75.13;102465.19;15638046;28;20112;-49
2023/12/18 08:13:49;;;;;;;0.00;0.00;;;;;;;6.62;74.78;102460.28;15629836;28;20041;-49
2023/12/18 08:21:25;;;;;;;0.17;0.17;;;;;;;6.73;74.67;102464.63;15677014;28;20534;-51
2023/12/18 08:29:00;;;;;;;0.00;0.00;;;;;;;6.78;75.02;102481.06;15673999;28;20410;-51
2023/12/18 08:36:36;;;;;;;0.20;0.20;;;;;;;6.80;74.84;102464.88;15672813;28;20440;-52
2023/12/18 08:44:12;;;;;;;0.00;0.00;;;;;;;6.79;74.30;102458.72;15670709;28;20072;-49
2023/12/18 08:51:45;;;;;;;0.47;0.47;;;;;;;6.80;74.96;102451.53;15670977;28;20048;-48
2023/12/18 08:59:20;;;;;;;0.25;0.25;;;;;;;7.01;74.31;102435.34;15664265;28;20103;-49
2023/12/18 09:06:54;;;;;;;1.13;0.20;;;;;;;6.88;75.20;102455.19;15649423;28;20049;-47
2023/12/18 09:14:29;;;;;;;0.00;0.00;;;;;;;6.68;75.38;102463.38;15668105;28;20044;-46
2023/12/18 09:22:03;;;;;;;0.03;0.03;;;;;;;6.75;75.33;102443.97;15667569;28;20099;-48
2023/12/18 09:29:38;;;;;;;0.25;0.25;;;;;;;6.80;75.21;102441.72;15656578;28;20552;-49
2023/12/18 09:37:12;;;;;;;0.15;0.15;;;;;;;7.06;74.10;102443.75;15675166;28;20041;-48
2023/12/18 09:44:48;;;;;;;0.10;0.10;;;;;;;6.75;74.90;102443.13;15682595;28;20119;-49
2023/12/18 09:52:23;;;;;;;0.75;0.45;;;;;;;7.04;74.29;102448.38;15674669;28;20037;-48
2023/12/18 10:00:01;;;;;;;0.10;0.10;;;;;;;6.98;74.69;102439.13;15682572;28;20574;-47
2023/12/18 10:07:46;;;;;;;0.15;0.10;;;;;;;7.20;73.85;102413.06;15677375;28;20035;-48
2023/12/18 10:15:23;;;;;;;1.60;0.88;;;;;;;7.19;73.40;102414.06;15678682;28;20111;-48
2023/12/18 10:23:00;;;;;;;0.57;0.57;;;;;;;7.22;73.59;102409.25;15682509;28;20095;-48
2023/12/18 10:30:36;;;;;;;0.38;0.38;;;;;;;7.44;72.92;102415.22;15681294;28;20421;-49
2023/12/18 10:38:19;;;;;;;0.13;0.08;;;;;;;7.67;71.86;102406.63;15678430;28;20049;-47
2023/12/18 10:45:55;;;;;;;3.95;2.10;;;;;;;7.59;71.99;102389.66;15671704;28;20402;-47
2023/12/18 10:53:34;;;;;;;0.08;0.08;;;;;;;7.25;72.33;102387.59;15678331;28;20143;-47
2023/12/18 11:01:10;;;;;;;16.75;2.28;;;;;;;7.62;71.37;102382.19;15672175;28;20132;-48
2023/12/18 11:08:44;;;;;;;0.00;0.00;;;;;;;7.56;71.03;102387.31;15676632;28;20452;-50
2023/12/18 11:16:32;;;;;;;2.25;1.88;;;;;;;7.51;71.27;102381.59;15668265;28;20536;-48
2023/12/18 11:24:06;;;;;;;1.95;0.80;;;;;;;7.97;70.36;102385.88;15673435;28;20065;-47
2023/12/18 11:31:42;;;;;;;0.82;0.82;;;;;;;7.60;71.32;102368.16;15677320;28;20585;-48
2023/12/18 11:39:15;;;;;;;0.30;0.30;;;;;;;7.32;71.31;102367.34;15674822;28;20401;-46
2023/12/18 11:46:52;;;;;;;0.50;0.43;;;;;;;7.32;71.82;102372.69;15653841;28;20136;-48
2023/12/18 11:54:28;;;;;;;0.00;0.00;;;;;;;7.63;71.39;102350.97;15656084;28;20060;-51
2023/12/18 12:02:04;;;;;;;0.65;0.22;;;;;;;7.75;70.63;102355.09;15672867;28;20052;-50
2023/12/18 12:09:39;;;;;;;1.35;1.15;;;;;;;7.43;72.05;102352.94;15630678;28;20060;-53
2023/12/18 12:17:20;;;;;;;0.80;0.55;;;;;;;7.58;71.85;102343.41;15620975;28;20409;-53
2023/12/18 12:24:56;;;;;;;0.40;0.37;;;;;;;7.52;71.50;102343.19;15675342;28;20743;-54
2023/12/18 12:32:33;;;;;;;0.15;0.15;;;;;;;8.16;70.94;102342.94;15663510;28;20052;-50
2023/12/18 12:40:11;;;;;;;2.13;0.63;;;;;;;7.79;71.23;102337.78;15674546;28;20099;-50
2023/12/18 12:47:47;;;;;;;0.17;0.13;;;;;;;7.64;72.18;102336.59;15665576;28;20033;-51
2023/12/18 12:55:22;;;;;;;0.08;0.08;;;;;;;7.62;72.48;102338.59;15647572;28;20037;-54
2023/12/18 13:02:56;;;;;;;0.10;0.10;;;;;;;7.93;71.36;102337.25;15672596;28;20626;-51
2023/12/18 13:10:30;;;;;;;0.77;0.60;;;;;;;8.72;69.49;102330.16;15657281;28;20040;-49
2023/12/18 13:18:05;;;;;;;;;;;;;;;8.09;70.56;102317.81;15714284;28;20448;-50
2023/12/18 13:25:38;;;;;;;0.22;0.22;;;;;;;7.70;72.92;102319.16;15722201;28;20267;-52
2023/12/18 13:33:13;;;;;;;0.00;0.00;;;;;;;7.51;72.62;102312.94;15683841;28;20245;-54
2023/12/18 13:40:46;;;;;;;1.05;0.52;;;;;;;7.96;71.75;102295.13;15726014;28;20049;-49
2023/12/18 13:48:21;;;;;;;2.55;0.35;;;;;;;8.01;71.31;102301.69;15725765;28;20052;-49
2023/12/18 13:55:55;;;;;;;0.35;0.35;;;;;;;7.55;72.97;102279.56;15729514;28;20268;-51
2023/12/18 14:03:29;;;;;;;0.03;0.03;;;;;;;7.52;73.17;102284.41;15728661;28;20090;-51
2023/12/18 14:11:03;;;;;;;1.55;0.65;;;;;;;7.72;72.28;102285.06;15698771;28;20648;-49
2023/12/18 14:18:38;;;;;;;0.45;0.45;;;;;;;7.80;71.90;102286.00;15716282;28;20064;-52
2023/12/18 14:26:11;;;;;;;0.00;0.00;;;;;;;7.61;72.64;102270.13;15735311;28;20045;-49
2023/12/18 14:33:48;;;;;;;0.00;0.00;;;;;;;7.86;72.26;102265.81;15723729;28;20157;-50
2023/12/18 14:41:21;;;;;;;0.00;0.00;;;;;;;7.64;72.53;102273.31;15744229;28;20053;-51
2023/12/18 14:48:56;;;;;;;;;;;;;;;7.64;72.81;102272.47;15735271;28;20078;-51
2023/12/18 14:56:31;;;;;;;2.67;1.55;;;;;;;7.58;73.44;102268.59;15685539;28;19959;-49
2023/12/18 15:04:07;;;;;;;0.00;0.00;;;;;;;7.53;73.55;102276.22;15743473;28;20072;-50
2023/12/18 15:11:41;;;;;;;0.30;0.30;;;;;;;7.67;72.26;102267.66;15745359;28;20045;-51
2023/12/18 15:19:16;;;;;;;0.00;0.00;;;;;;;7.36;73.61;102277.88;15687685;28;20041;-50
2023/12/18 15:26:51;;;;;;;0.10;0.10;;;;;;;7.18;74.14;102269.03;15645861;28;20124;-48
2023/12/18 15:34:27;;;;;;;1.15;0.43;;;;;;;7.52;73.33;102269.19;15681785;28;20048;-48
2023/12/18 15:42:01;;;;;;;0.35;0.35;;;;;;;7.25;75.52;102261.25;15738261;28;20048;-48
2023/12/18 15:49:39;;;;;;;0.22;0.15;;;;;;;7.01;74.94;102261.81;15732786;28;20028;-53
2023/12/18 15:57:13;;;;;;;0.13;0.13;;;;;;;7.23;74.84;102249.84;15740359;28;20064;-51
2023/12/18 16:04:49;;;;;;;0.10;0.10;;;;;;;6.92;75.69;102228.84;15722552;28;20108;-49
2023/12/18 16:12:23;;;;;;;0.00;0.00;;;;;;;7.10;75.09;102215.53;15689760;28;20091;-50
2023/12/18 16:19:58;;;;;;;0.90;0.63;;;;;;;6.88;74.60;102219.47;15734049;28;20037;-49
2023/12/18 16:27:32;;;;;;;0.35;0.25;;;;;;;6.47;76.04;102215.44;15739131;28;20044;-52
2023/12/18 16:35:08;;;;;;;;;;;;;;;6.53;75.06;102197.03;15709849;28;20074;-51
2023/12/18 16:42:41;;;;;;;0.00;0.00;;;;;;;6.36;76.34;102201.31;15724506;28;19925;-50
2023/12/18 16:50:17;;;;;;;0.32;0.32;;;;;;;6.58;74.96;102191.28;15727323;28;20519;-51
2023/12/18 16:57:51;;;;;;;0.15;0.15;;;;;;;6.23;75.87;102183.97;15733351;28;20440;-49
2023/12/18 17:05:26;;;;;;;0.00;0.00;;;;;;;6.06;75.92;102180.22;15732008;28;20716;-48
2023/12/18 17:13:00;;;;;;;0.00;0.00;;;;;;;6.18;76.19;102176.41;15707795;28;20103;-52
2023/12/18 17:20:37;;;;;;;0.22;0.17;;;;;;;6.55;74.25;102156.88;15727730;28;20509;-48
2023/12/18 17:28:12;;;;;;;0.52;0.47;;;;;;;6.25;75.32;102147.31;15703941;28;20037;-51
2023/12/18 17:35:47;;;;;;;0.10;0.10;;;;;;;6.22;74.58;102140.47;15704086;28;20037;-51
2023/12/18 17:43:21;;;;;;;1.00;0.95;;;;;;;5.99;75.51;102120.50;15702592;28;20044;-52
2023/12/18 17:50:59;;;;;;;0.17;0.15;;;;;;;5.77;75.21;102101.19;15719844;28;20048;-52
2023/12/18 17:58:35;;;;;;;0.10;0.10;;;;;;;5.66;75.57;102114.69;15730205;28;20390;-48
2023/12/18 18:06:10;;;;;;;0.17;0.15;;;;;;;5.41;76.22;102104.63;15723776;28;20048;-49
2023/12/18 18:13:44;;;;;;;0.93;0.90;;;;;;;5.66;74.47;102084.56;15683213;28;20049;-50
2023/12/18 18:21:19;;;;;;;0.28;0.28;;;;;;;5.64;74.88;102106.00;15666410;28;20076;-48
2023/12/18 18:28:55;;;;;;;4.28;0.45;;;;;;;5.70;74.20;102094.78;15685640;28;20246;-48
2023/12/18 18:36:32;;;;;;;0.38;0.25;;;;;;;5.65;74.93;102096.19;15697209;28;20045;-47
2023/12/18 18:44:07;;;;;;;0.32;0.32;;;;;;;5.22;75.41;102097.53;15742924;28;20114;-48
2023/12/18 18:51:42;;;;;;;0.15;0.15;;;;;;;5.43;75.37;102084.88;15738642;28;20037;-49
2023/12/18 18:59:15;;;;;;;0.47;0.47;;;;;;;5.28;74.86;102059.72;15681986;28;20124;-48
2023/12/18 19:06:50;;;;;;;0.40;0.40;;;;;;;5.26;74.98;102069.63;15688770;28;20048;-50
2023/12/18 19:14:24;;;;;;;1.90;0.25;;;;;;;5.28;74.93;102033.09;15717402;28;20033;-50
2023/12/18 19:21:59;;;;;;;2.63;0.45;;;;;;;5.00;75.70;102037.47;15690554;28;20059;-50
2023/12/18 19:29:33;;;;;;;0.55;0.55;;;;;;;4.79;76.35;102048.25;15727775;28;20046;-51
2023/12/18 19:37:08;;;;;;;1.35;1.25;;;;;;;5.11;74.80;102000.88;15740812;28;20048;-50
2023/12/18 19:44:45;;;;;;;0.38;0.38;;;;;;;5.09;74.77;102021.50;15734942;28;20037;-48
2023/12/18 19:52:21;;;;;;;0.22;0.20;;;;;;;5.05;74.45;101976.69;15686336;28;20045;-50
2023/12/18 19:59:57;;;;;;;0.22;0.22;;;;;;;5.08;73.81;101984.38;15687640;28;20074;-52
2023/12/18 20:07:33;;;;;;;0.15;0.15;;;;;;;4.91;75.25;101980.63;15692125;28;20045;-49
2023/12/18 20:15:09;;;;;;;0.00;0.00;;;;;;;5.08;74.51;101989.69;15692162;28;20471;-49
2023/12/18 20:22:44;;;;;;;0.20;0.20;;;;;;;5.10;73.52;101967.28;15704494;28;20044;-49
2023/12/18 20:30:18;;;;;;;0.00;0.00;;;;;;;5.04;73.81;101956.38;15737438;28;20378;-49
2023/12/18 20:37:53;;;;;;;0.00;0.00;;;;;;;5.11;73.83;101960.97;15720197;28;20044;-49
2023/12/18 20:45:28;;;;;;;0.00;0.00;;;;;;;5.00;74.38;101950.50;15738854;28;20044;-51
2023/12/18 20:53:03;;;;;;;0.10;0.10;;;;;;;4.91;74.63;101924.75;15738824;28;20040;-51
2023/12/18 21:00:39;;;;;;;0.05;0.05;;;;;;;4.96;75.61;101908.38;15736429;28;20111;-49
2023/12/18 21:08:14;;;;;;;0.00;0.00;;;;;;;5.31;74.68;101899.66;15722516;28;20065;-50
2023/12/18 21:15:48;;;;;;;0.57;0.57;;;;;;;5.10;74.14;101910.56;15723954;28;20032;-49
2023/12/18 21:23:22;;;;;;;0.05;0.05;;;;;;;5.23;74.29;101887.13;15720369;28;20060;-48
2023/12/18 21:30:57;;;;;;;0.40;0.40;;;;;;;4.81;75.36;101878.72;15717731;28;20044;-50
2023/12/18 21:38:33;;;;;;;0.40;0.20;;;;;;;5.10;75.02;101882.13;15706598;28;20135;-49
2023/12/18 21:46:06;;;;;;;0.10;0.10;;;;;;;4.61;75.28;101899.19;15722504;28;20162;-47
2023/12/18 21:53:42;;;;;;;0.47;0.32;;;;;;;4.67;75.55;101884.50;15712315;28;20151;-49
2023/12/18 22:01:19;;;;;;;0.13;0.13;;;;;;;4.80;73.89;101872.59;15714734;28;20057;-48
2023/12/18 22:08:54;;;;;;;3.20;1.75;;;;;;;4.90;73.13;101856.59;15714190;28;20046;-48
2023/12/18 22:16:31;;;;;;;1.08;0.52;;;;;;;4.80;72.98;101859.28;15680970;28;20040;-49
2023/12/18 22:24:07;;;;;;;0.40;0.40;;;;;;;4.85;72.23;101862.34;15703536;28;20064;-49
2023/12/18 22:31:42;;;;;;;0.90;0.90;;;;;;;4.67;71.82;101821.53;15717336;28;20036;-48
2023/12/18 22:39:17;;;;;;;0.28;0.28;;;;;;;4.81;72.01;101812.25;15706814;28;20740;-49
2023/12/18 22:46:51;;;;;;;2.45;0.80;;;;;;;5.10;71.40;101825.41;15729561;28;20048;-51
2023/12/18 22:54:26;;;;;;;0.73;0.73;;;;;;;5.35;70.16;101832.66;15681938;28;20045;-49
2023/12/18 23:02:00;;;;;;;0.90;0.45;;;;;;;5.29;69.92;101838.59;15709156;28;20401;-50
2023/12/18 23:09:36;;;;;;;0.00;0.00;;;;;;;5.18;69.68;101819.34;15705874;28;20037;-48
2023/12/18 23:17:10;;;;;;;0.25;0.25;;;;;;;5.07;68.80;101797.25;15696277;28;20200;-50
2023/12/18 23:24:44;;;;;;;;;;;;;;;5.05;68.98;101812.53;15688391;28;20115;-49
2023/12/18 23:32:18;;;;;;;0.03;0.03;;;;;;;5.01;69.78;101818.31;15708778;28;19921;-48
2023/12/18 23:39:53;;;;;;;4.18;0.63;;;;;;;5.02;69.08;101820.81;15701750;28;20583;-49
2023/12/18 23:47:27;;;;;;;1.75;1.27;;;;;;;5.30;67.83;101799.50;15688732;28;20037;-49
2023/12/18 23:55:03;;;;;;;;;;;;;;;5.32;68.00;101789.56;15716539;28;20557;-49
